Terminal Aerodrome Forecast
Issued by NWS

Home | Current Version | Previous Version | Text Only | Print | Product List | Glossary On
Versions: 1 2 3 4 5 6 7 8 9 10 11 12 13 14 15 16 17 18 19
000
FTUS44 KHGX 180520
TAFSGR
TAF
KSGR 180520Z 1806/1906 08004KT P6SM SCT025 BKN060
     FM181500 02008KT P6SM BKN040
     FM190200 04003KT P6SM SKC=

USA.gov is the U.S. government's official web portal to all federal, state and local government web resources and services.